NOZ105 ENEV-ENBR
Flight info
| Callsign | NOZ105 |
|---|---|
| Flight time | 1h 33m |
| Altitude | 38000 |
| Route | GEPTU DCT LUNUR |
| Aircraft | B38M/M-SDE2E3GHIJ1LRWXY/LB2 |
Departure
| Time | 2026-05-04 08:24 |
|---|---|
| Airport | Harstad/Narvik Airport (ENEV) |
Arrival
| Time | 2026-05-04 09:57 |
|---|---|
| Airport | Bergen Airport, Flesland (ENBR) |
| Time | Latitude | Longitude | Altitude | Speed | Heading |
|---|---|---|---|---|---|
| 2026-05-04 07:57 | 68.48978 | 16.68616 | 94 ft | 0 kts | 358° |
| 2026-05-04 08:14 | 68.48962 | 16.68617 | 94 ft | 4 kts | 358° |
| 2026-05-04 08:14 | 68.48935 | 16.68620 | 95 ft | 4 kts | 358° |
| 2026-05-04 08:14 | 68.48926 | 16.68621 | 95 ft | 1 kts | 358° |
| 2026-05-04 08:16 | 68.48928 | 16.68620 | 94 ft | 1 kts | 354° |
| 2026-05-04 08:16 | 68.48930 | 16.68614 | 94 ft | 0 kts | 320° |
| 2026-05-04 08:17 | 68.48931 | 16.68608 | 95 ft | 0 kts | 294° |
| 2026-05-04 08:17 | 68.48929 | 16.68600 | 95 ft | 1 kts | 256° |
| 2026-05-04 08:17 | 68.48915 | 16.68560 | 95 ft | 6 kts | 225° |
| 2026-05-04 08:17 | 68.48888 | 16.68428 | 94 ft | 8 kts | 268° |
| 2026-05-04 08:19 | 68.49763 | 16.68113 | 75 ft | 22 kts | 358° |
| 2026-05-04 08:19 | 68.49892 | 16.68099 | 75 ft | 16 kts | 358° |
| 2026-05-04 08:20 | 68.49985 | 16.68088 | 68 ft | 12 kts | 358° |
| 2026-05-04 08:20 | 68.50052 | 16.68081 | 76 ft | 8 kts | 358° |
| 2026-05-04 08:20 | 68.50109 | 16.68075 | 78 ft | 9 kts | 358° |
| 2026-05-04 08:20 | 68.50182 | 16.68067 | 82 ft | 13 kts | 358° |
| 2026-05-04 08:21 | 68.50284 | 16.68056 | 85 ft | 16 kts | 358° |
| 2026-05-04 08:21 | 68.50378 | 16.67928 | 92 ft | 15 kts | 291° |
| 2026-05-04 08:21 | 68.50362 | 16.67698 | 96 ft | 13 kts | 210° |
| 2026-05-04 08:21 | 68.50270 | 16.67687 | 96 ft | 17 kts | 178° |
| 2026-05-04 08:22 | 68.49928 | 16.67727 | 89 ft | 87 kts | 178° |
| 2026-05-04 08:22 | 68.49104 | 16.67821 | 100 ft | 148 kts | 177° |
| 2026-05-04 08:24 | 68.42242 | 16.62154 | 4902 ft | 173 kts | 263° |
| 2026-05-04 08:24 | 68.42362 | 16.58898 | 5571 ft | 176 kts | 288° |
| 2026-05-04 08:24 | 68.42713 | 16.55672 | 6134 ft | 185 kts | 276° |
| 2026-05-04 08:24 | 68.42560 | 16.52064 | 6503 ft | 204 kts | 245° |
| 2026-05-04 08:25 | 68.41614 | 16.49030 | 6863 ft | 224 kts | 212° |
| 2026-05-04 08:25 | 68.40184 | 16.46777 | 7200 ft | 250 kts | 214° |
| 2026-05-04 08:25 | 68.38725 | 16.43927 | 7765 ft | 267 kts | 215° |
| 2026-05-04 08:25 | 68.37183 | 16.40935 | 8489 ft | 276 kts | 215° |
| 2026-05-04 08:26 | 68.35615 | 16.37933 | 9386 ft | 278 kts | 215° |
| 2026-05-04 08:27 | 68.23256 | 16.14731 | 14343 ft | 323 kts | 215° |
| 2026-05-04 08:28 | 68.21397 | 16.11290 | 15093 ft | 325 kts | 215° |
| 2026-05-04 08:28 | 68.19524 | 16.07832 | 15815 ft | 328 kts | 215° |
| 2026-05-04 08:28 | 68.17631 | 16.04342 | 16499 ft | 331 kts | 215° |
| 2026-05-04 08:28 | 68.15724 | 16.00837 | 17181 ft | 334 kts | 215° |
| 2026-05-04 08:29 | 68.13800 | 15.97304 | 17809 ft | 337 kts | 215° |
| 2026-05-04 08:29 | 68.11857 | 15.93747 | 18448 ft | 339 kts | 215° |
| 2026-05-04 08:29 | 68.09903 | 15.90177 | 19037 ft | 342 kts | 215° |
| 2026-05-04 08:31 | 67.95694 | 15.64439 | 22727 ft | 363 kts | 215° |
| 2026-05-04 08:33 | 67.80639 | 15.37596 | 25836 ft | 382 kts | 215° |
| 2026-05-04 08:33 | 67.78430 | 15.33632 | 26213 ft | 385 kts | 216° |
| 2026-05-04 08:35 | 67.62510 | 15.05190 | 28623 ft | 404 kts | 215° |
| 2026-05-04 08:35 | 67.60203 | 15.01109 | 28931 ft | 407 kts | 215° |
| 2026-05-04 08:35 | 67.57849 | 14.96954 | 29231 ft | 409 kts | 215° |
| 2026-05-04 08:35 | 67.55481 | 14.92785 | 29533 ft | 412 kts | 215° |
| 2026-05-04 08:37 | 67.40939 | 14.67408 | 31145 ft | 427 kts | 215° |
| 2026-05-04 08:37 | 67.38460 | 14.63119 | 31392 ft | 430 kts | 214° |
| 2026-05-04 08:37 | 67.35962 | 14.58810 | 31624 ft | 432 kts | 214° |
| 2026-05-04 08:38 | 67.33449 | 14.54485 | 31892 ft | 434 kts | 214° |
| 2026-05-04 08:38 | 67.30923 | 14.50148 | 32120 ft | 437 kts | 214° |
| 2026-05-04 08:38 | 67.28382 | 14.45798 | 32335 ft | 439 kts | 214° |
| 2026-05-04 08:40 | 67.10386 | 14.15301 | 34219 ft | 444 kts | 214° |
| 2026-05-04 08:40 | 67.07798 | 14.10960 | 34455 ft | 444 kts | 214° |
| 2026-05-04 08:40 | 67.05206 | 14.06627 | 34708 ft | 445 kts | 214° |
| 2026-05-04 08:41 | 67.02613 | 14.02300 | 34972 ft | 445 kts | 214° |
| 2026-05-04 08:41 | 67.00019 | 13.97983 | 35220 ft | 445 kts | 214° |
| 2026-05-04 08:41 | 66.97423 | 13.93674 | 35448 ft | 445 kts | 214° |
| 2026-05-04 08:41 | 66.94821 | 13.89368 | 35670 ft | 446 kts | 214° |
| 2026-05-04 08:42 | 66.92219 | 13.85070 | 35891 ft | 446 kts | 214° |
| 2026-05-04 08:42 | 66.89616 | 13.80784 | 36109 ft | 446 kts | 214° |
| 2026-05-04 08:42 | 66.87009 | 13.76500 | 36330 ft | 446 kts | 214° |
| 2026-05-04 08:42 | 66.84402 | 13.72228 | 36508 ft | 446 kts | 214° |
| 2026-05-04 08:43 | 66.81791 | 13.67960 | 36693 ft | 447 kts | 214° |
| 2026-05-04 08:43 | 66.79217 | 13.63764 | 36981 ft | 444 kts | 214° |
| 2026-05-04 08:43 | 66.76631 | 13.59560 | 37329 ft | 440 kts | 214° |
| 2026-05-04 08:43 | 66.74060 | 13.55390 | 37522 ft | 439 kts | 214° |
| 2026-05-04 08:44 | 66.71481 | 13.51217 | 37534 ft | 440 kts | 214° |
| 2026-05-04 08:46 | 66.50868 | 13.18241 | 37523 ft | 439 kts | 213° |
| 2026-05-04 08:46 | 66.45704 | 13.10082 | 37525 ft | 439 kts | 213° |
| 2026-05-04 08:47 | 66.40535 | 13.01955 | 37537 ft | 439 kts | 213° |
| 2026-05-04 08:47 | 66.35361 | 12.93862 | 37528 ft | 438 kts | 213° |
| 2026-05-04 08:48 | 66.30185 | 12.85805 | 37534 ft | 439 kts | 213° |
| 2026-05-04 08:48 | 66.25002 | 12.77777 | 37536 ft | 439 kts | 213° |
| 2026-05-04 08:49 | 66.19813 | 12.69778 | 37529 ft | 439 kts | 213° |
| 2026-05-04 08:50 | 66.01626 | 12.42051 | 37552 ft | 439 kts | 213° |
| 2026-05-04 08:51 | 65.96421 | 12.34200 | 37553 ft | 439 kts | 213° |
| 2026-05-04 08:51 | 65.91218 | 12.26394 | 37551 ft | 438 kts | 213° |
| 2026-05-04 08:52 | 65.86006 | 12.18610 | 37553 ft | 439 kts | 212° |
| 2026-05-04 08:52 | 65.80793 | 12.10861 | 37563 ft | 439 kts | 212° |
| 2026-05-04 08:54 | 65.60778 | 11.81455 | 37579 ft | 439 kts | 212° |
| 2026-05-04 08:55 | 65.55543 | 11.73852 | 37581 ft | 439 kts | 212° |
| 2026-05-04 08:55 | 65.50303 | 11.66276 | 37580 ft | 439 kts | 212° |
| 2026-05-04 09:01 | 64.95173 | 10.88699 | 37605 ft | 438 kts | 212° |
| 2026-05-04 09:01 | 64.89903 | 10.81480 | 37606 ft | 438 kts | 211° |
| 2026-05-04 09:02 | 64.84629 | 10.74286 | 37616 ft | 438 kts | 211° |
| 2026-05-04 09:02 | 64.79349 | 10.67120 | 37620 ft | 438 kts | 211° |
| 2026-05-04 09:03 | 64.74064 | 10.59976 | 37620 ft | 439 kts | 211° |
| 2026-05-04 09:03 | 64.68781 | 10.52870 | 37618 ft | 438 kts | 211° |
| 2026-05-04 09:04 | 64.63492 | 10.45787 | 37618 ft | 438 kts | 211° |
| 2026-05-04 09:04 | 64.58200 | 10.38733 | 37625 ft | 438 kts | 211° |
| 2026-05-04 09:05 | 64.52900 | 10.31699 | 37627 ft | 440 kts | 211° |
| 2026-05-04 09:05 | 64.47573 | 10.24663 | 37635 ft | 441 kts | 211° |
| 2026-05-04 09:06 | 64.42240 | 10.17650 | 37644 ft | 441 kts | 211° |
| 2026-05-04 09:08 | 64.20892 | 9.89888 | 37667 ft | 440 kts | 211° |
| 2026-05-04 09:08 | 64.15552 | 9.83022 | 37667 ft | 440 kts | 211° |
| 2026-05-04 09:09 | 64.10207 | 9.76180 | 37671 ft | 440 kts | 211° |
| 2026-05-04 09:09 | 64.04860 | 9.69366 | 37674 ft | 440 kts | 211° |
| 2026-05-04 09:10 | 63.99508 | 9.62574 | 37682 ft | 441 kts | 211° |
| 2026-05-04 09:10 | 63.94149 | 9.55803 | 37682 ft | 440 kts | 211° |
| 2026-05-04 09:11 | 63.88794 | 9.49067 | 37687 ft | 440 kts | 211° |
| 2026-05-04 09:11 | 63.83440 | 9.42363 | 37681 ft | 439 kts | 211° |
| 2026-05-04 09:12 | 63.78084 | 9.35688 | 37692 ft | 440 kts | 211° |
| 2026-05-04 09:14 | 63.56655 | 9.09259 | 37692 ft | 439 kts | 211° |
| 2026-05-04 09:14 | 63.51328 | 9.02761 | 37690 ft | 439 kts | 210° |
| 2026-05-04 09:15 | 63.45964 | 8.96246 | 37690 ft | 439 kts | 210° |
| 2026-05-04 09:15 | 63.40593 | 8.89750 | 37695 ft | 439 kts | 210° |
| 2026-05-04 09:17 | 63.16426 | 8.60861 | 37702 ft | 438 kts | 210° |
| 2026-05-04 09:18 | 63.11052 | 8.54512 | 37701 ft | 438 kts | 210° |
| 2026-05-04 09:18 | 63.05675 | 8.48185 | 37724 ft | 438 kts | 210° |
| 2026-05-04 09:19 | 63.00297 | 8.41885 | 37707 ft | 437 kts | 210° |
| 2026-05-04 09:19 | 62.94920 | 8.35612 | 37735 ft | 438 kts | 210° |
| 2026-05-04 09:20 | 62.89542 | 8.29363 | 37731 ft | 437 kts | 210° |
| 2026-05-04 09:20 | 62.84169 | 8.23148 | 37728 ft | 437 kts | 210° |
| 2026-05-04 09:21 | 62.78790 | 8.16951 | 37735 ft | 437 kts | 210° |
| 2026-05-04 09:21 | 62.73412 | 8.10782 | 37741 ft | 437 kts | 210° |
| 2026-05-04 09:22 | 62.68034 | 8.04635 | 37699 ft | 436 kts | 210° |
| 2026-05-04 09:22 | 62.62657 | 7.98517 | 37696 ft | 436 kts | 210° |
| 2026-05-04 09:23 | 62.57274 | 7.92417 | 37733 ft | 437 kts | 210° |
| 2026-05-04 09:23 | 62.51885 | 7.86336 | 37714 ft | 436 kts | 210° |
| 2026-05-04 09:25 | 62.33027 | 7.65249 | 37445 ft | 431 kts | 210° |
| 2026-05-04 09:25 | 62.30394 | 7.62328 | 36969 ft | 432 kts | 210° |
| 2026-05-04 09:26 | 62.27683 | 7.59327 | 36529 ft | 433 kts | 210° |
| 2026-05-04 09:26 | 62.25034 | 7.56400 | 36032 ft | 435 kts | 210° |
| 2026-05-04 09:26 | 62.22340 | 7.53431 | 35441 ft | 435 kts | 210° |
| 2026-05-04 09:26 | 62.19650 | 7.50471 | 34883 ft | 435 kts | 210° |
| 2026-05-04 09:27 | 62.16963 | 7.47520 | 34363 ft | 433 kts | 210° |
| 2026-05-04 09:27 | 62.14295 | 7.44598 | 33846 ft | 429 kts | 210° |
| 2026-05-04 09:27 | 62.11653 | 7.41708 | 33308 ft | 425 kts | 210° |
| 2026-05-04 09:27 | 62.09038 | 7.38855 | 32792 ft | 420 kts | 210° |
| 2026-05-04 09:28 | 62.06450 | 7.36037 | 32278 ft | 415 kts | 210° |
| 2026-05-04 09:28 | 62.03892 | 7.33254 | 31811 ft | 411 kts | 210° |
| 2026-05-04 09:28 | 62.01352 | 7.30498 | 31320 ft | 407 kts | 210° |
| 2026-05-04 09:28 | 61.98844 | 7.27782 | 30835 ft | 403 kts | 210° |
| 2026-05-04 09:29 | 61.96362 | 7.25096 | 30360 ft | 398 kts | 210° |
| 2026-05-04 09:29 | 61.93902 | 7.22440 | 29881 ft | 395 kts | 210° |
| 2026-05-04 09:29 | 61.91465 | 7.19815 | 29492 ft | 391 kts | 210° |
| 2026-05-04 09:29 | 61.89050 | 7.17218 | 29047 ft | 388 kts | 210° |
| 2026-05-04 09:30 | 61.86651 | 7.14645 | 28638 ft | 385 kts | 210° |
| 2026-05-04 09:30 | 61.84274 | 7.12095 | 28194 ft | 381 kts | 210° |
| 2026-05-04 09:30 | 61.81917 | 7.09575 | 27768 ft | 377 kts | 210° |
| 2026-05-04 09:30 | 61.79551 | 7.07047 | 27351 ft | 388 kts | 210° |
| 2026-05-04 09:31 | 61.77098 | 7.04433 | 26977 ft | 401 kts | 210° |
| 2026-05-04 09:31 | 61.74594 | 7.01771 | 26546 ft | 404 kts | 210° |
| 2026-05-04 09:31 | 61.72074 | 6.99093 | 26202 ft | 406 kts | 210° |
| 2026-05-04 09:31 | 61.69558 | 6.96426 | 25773 ft | 403 kts | 210° |
| 2026-05-04 09:32 | 61.67061 | 6.93784 | 25331 ft | 400 kts | 210° |
| 2026-05-04 09:32 | 61.64588 | 6.91171 | 24908 ft | 396 kts | 210° |
| 2026-05-04 09:34 | 61.47820 | 6.73576 | 22064 ft | 375 kts | 211° |
| 2026-05-04 09:34 | 61.45489 | 6.71148 | 21692 ft | 373 kts | 210° |
| 2026-05-04 09:34 | 61.43176 | 6.68739 | 21277 ft | 370 kts | 210° |
| 2026-05-04 09:34 | 61.40901 | 6.66371 | 20909 ft | 368 kts | 210° |
| 2026-05-04 09:35 | 61.38613 | 6.64016 | 20644 ft | 365 kts | 210° |
| 2026-05-04 09:35 | 61.36325 | 6.61685 | 20669 ft | 367 kts | 210° |
| 2026-05-04 09:35 | 61.34033 | 6.59352 | 20636 ft | 366 kts | 210° |
| 2026-05-04 09:35 | 61.31744 | 6.57019 | 20674 ft | 367 kts | 210° |
| 2026-05-04 09:37 | 61.16199 | 6.40983 | 17829 ft | 351 kts | 210° |
| 2026-05-04 09:37 | 61.14016 | 6.38760 | 17599 ft | 350 kts | 210° |
| 2026-05-04 09:38 | 61.11837 | 6.36545 | 17360 ft | 348 kts | 210° |
| 2026-05-04 09:38 | 61.09662 | 6.34337 | 17117 ft | 348 kts | 210° |
| 2026-05-04 09:38 | 61.07492 | 6.32137 | 16880 ft | 347 kts | 210° |
| 2026-05-04 09:38 | 61.05330 | 6.29948 | 16638 ft | 346 kts | 210° |
| 2026-05-04 09:39 | 61.03172 | 6.27768 | 16407 ft | 345 kts | 210° |
| 2026-05-04 09:39 | 61.01018 | 6.25595 | 16166 ft | 344 kts | 210° |
| 2026-05-04 09:39 | 60.98871 | 6.23432 | 15917 ft | 344 kts | 210° |
| 2026-05-04 09:39 | 60.96724 | 6.21272 | 15688 ft | 343 kts | 210° |
| 2026-05-04 09:40 | 60.94580 | 6.19118 | 15445 ft | 342 kts | 210° |
| 2026-05-04 09:40 | 60.92444 | 6.16977 | 15204 ft | 341 kts | 210° |
| 2026-05-04 09:40 | 60.90312 | 6.14841 | 14967 ft | 341 kts | 210° |
| 2026-05-04 09:40 | 60.88184 | 6.12713 | 14724 ft | 340 kts | 210° |
| 2026-05-04 09:41 | 60.86058 | 6.10591 | 14481 ft | 339 kts | 210° |
| 2026-05-04 09:42 | 60.71034 | 6.00927 | 12854 ft | 338 kts | 200° |
| 2026-05-04 09:43 | 60.68769 | 5.99611 | 12625 ft | 338 kts | 199° |
| 2026-05-04 09:43 | 60.66509 | 5.98303 | 12362 ft | 337 kts | 200° |
| 2026-05-04 09:43 | 60.64257 | 5.96998 | 12145 ft | 337 kts | 200° |
| 2026-05-04 09:43 | 60.62006 | 5.95693 | 11904 ft | 336 kts | 200° |
| 2026-05-04 09:44 | 60.59759 | 5.94392 | 11650 ft | 335 kts | 199° |
| 2026-05-04 09:44 | 60.57517 | 5.93096 | 11368 ft | 334 kts | 199° |
| 2026-05-04 09:44 | 60.55290 | 5.91810 | 11094 ft | 330 kts | 199° |
| 2026-05-04 09:46 | 60.41122 | 5.82259 | 9446 ft | 284 kts | 215° |
| 2026-05-04 09:46 | 60.39465 | 5.80104 | 9124 ft | 283 kts | 214° |
| 2026-05-04 09:46 | 60.37813 | 5.77963 | 8790 ft | 281 kts | 214° |
| 2026-05-04 09:47 | 60.36179 | 5.75846 | 8491 ft | 278 kts | 214° |
| 2026-05-04 09:47 | 60.34560 | 5.73750 | 8186 ft | 276 kts | 214° |
| 2026-05-04 09:49 | 60.23528 | 5.59543 | 6136 ft | 257 kts | 213° |
| 2026-05-04 09:49 | 60.22032 | 5.57626 | 5854 ft | 253 kts | 213° |
| 2026-05-04 09:49 | 60.20564 | 5.55744 | 5579 ft | 248 kts | 213° |
| 2026-05-04 09:51 | 60.12483 | 5.45434 | 4479 ft | 205 kts | 213° |
| 2026-05-04 09:51 | 60.11329 | 5.43967 | 4402 ft | 189 kts | 213° |
| 2026-05-04 09:51 | 60.10370 | 5.42244 | 4263 ft | 185 kts | 239° |
| 2026-05-04 09:51 | 60.10015 | 5.39806 | 4143 ft | 185 kts | 268° |
| 2026-05-04 09:52 | 60.10132 | 5.37252 | 3905 ft | 182 kts | 278° |
| 2026-05-04 09:52 | 60.10324 | 5.34733 | 3723 ft | 183 kts | 278° |
| 2026-05-04 09:52 | 60.10522 | 5.32220 | 3489 ft | 181 kts | 278° |
| 2026-05-04 09:52 | 60.10875 | 5.29851 | 3316 ft | 174 kts | 303° |
| 2026-05-04 09:53 | 60.11764 | 5.28348 | 3192 ft | 166 kts | 331° |
| 2026-05-04 09:53 | 60.12841 | 5.27496 | 3047 ft | 166 kts | 343° |
| 2026-05-04 09:53 | 60.13969 | 5.26986 | 2882 ft | 166 kts | 348° |
| 2026-05-04 09:53 | 60.15103 | 5.26574 | 2693 ft | 165 kts | 349° |
| 2026-05-04 09:54 | 60.16236 | 5.26194 | 2500 ft | 165 kts | 349° |
| 2026-05-04 09:54 | 60.17363 | 5.25816 | 2297 ft | 164 kts | 349° |
| 2026-05-04 09:54 | 60.18485 | 5.25439 | 2106 ft | 163 kts | 349° |
| 2026-05-04 09:54 | 60.19601 | 5.25068 | 1897 ft | 163 kts | 349° |
| 2026-05-04 09:55 | 60.20701 | 5.24702 | 1682 ft | 154 kts | 349° |
| 2026-05-04 09:55 | 60.21737 | 5.24359 | 1479 ft | 149 kts | 350° |
| 2026-05-04 09:55 | 60.22747 | 5.24020 | 1286 ft | 146 kts | 350° |
| 2026-05-04 09:55 | 60.23747 | 5.23686 | 1089 ft | 145 kts | 351° |
| 2026-05-04 09:56 | 60.24743 | 5.23361 | 890 ft | 145 kts | 351° |
| 2026-05-04 09:56 | 60.25738 | 5.23031 | 694 ft | 145 kts | 350° |
| 2026-05-04 09:56 | 60.26725 | 5.22690 | 505 ft | 143 kts | 350° |
| 2026-05-04 09:56 | 60.27706 | 5.22364 | 316 ft | 143 kts | 351° |
| 2026-05-04 09:57 | 60.28686 | 5.22037 | 166 ft | 137 kts | 350° |
| 2026-05-04 09:57 | 60.29406 | 5.21795 | 155 ft | 70 kts | 351° |
| 2026-05-04 09:57 | 60.29689 | 5.21723 | 152 ft | 17 kts | 26° |
| 2026-05-04 09:57 | 60.29717 | 5.21898 | 150 ft | 15 kts | 81° |
| 2026-05-04 09:58 | 60.29688 | 5.22020 | 150 ft | 9 kts | 163° |
| 2026-05-04 09:58 | 60.29621 | 5.22043 | 151 ft | 11 kts | 171° |
| 2026-05-04 09:58 | 60.29538 | 5.22072 | 155 ft | 14 kts | 170° |
| 2026-05-04 10:00 | 60.28700 | 5.22488 | 168 ft | 12 kts | 69° |
| 2026-05-04 10:00 | 60.28721 | 5.22681 | 172 ft | 15 kts | 80° |